Time;durP1;ratioP1;P1;durP2;ratioP2;P2;SDS_P1;SDS_P2;PMS_P1;PMS_P2;Temp;Humidity;BMP_temperature;BMP_pressure;BME280_temperature;BME280_humidity;BME280_pressure;Samples;Min_cycle;Max_cycle;Signal;HPM_P1;HPM_P2
2022/02/13 00:02:09;;;;;;;0.40;0.40;;;;;;;;;;1844819;76;26697;-51
2022/02/13 00:04:36;;;;;;;1.12;0.70;;;;;;;;;;1845526;76;26646;-49
2022/02/13 00:07:04;;;;;;;0.60;0.60;;;;;;;;;;1844829;76;26242;-46
2022/02/13 00:09:31;;;;;;;0.50;0.50;;;;;;;;;;1845747;76;26273;-49
2022/02/13 00:12:02;;;;;;;0.70;0.70;;;;;;;;;;1845594;76;26284;-48
2022/02/13 00:14:29;;;;;;;1.10;0.72;;;;;;;;;;1844174;76;26309;-51
2022/02/13 00:16:57;;;;;;;0.60;0.60;;;;;;;;;;1841372;76;26323;-55
2022/02/13 00:19:24;;;;;;;0.55;0.55;;;;;;;;;;1840801;76;26285;-49
2022/02/13 00:21:52;;;;;;;1.20;0.80;;;;;;;;;;1830632;76;28576;-48
2022/02/13 00:24:20;;;;;;;0.68;0.60;;;;;;;;;;1845114;76;26881;-53
2022/02/13 00:26:47;;;;;;;0.75;0.60;;;;;;;;;;1846250;76;26375;-47
2022/02/13 00:29:15;;;;;;;0.68;0.68;;;;;;;;;;1844838;76;26669;-46
2022/02/13 00:31:43;;;;;;;1.05;0.53;;;;;;;;;;1845503;76;26258;-47
2022/02/13 00:34:10;;;;;;;0.45;0.45;;;;;;;;;;1841307;76;27385;-55
2022/02/13 00:36:38;;;;;;;0.50;0.50;;;;;;;;;;1854528;76;26344;-47
2022/02/13 00:39:06;;;;;;;0.55;0.47;;;;;;;;;;1861450;76;26213;-45
2022/02/13 00:41:34;;;;;;;1.15;0.70;;;;;;;;;;1857753;76;26273;-52
2022/02/13 00:44:02;;;;;;;0.60;0.60;;;;;;;;;;1861341;76;26269;-56
2022/02/13 00:46:29;;;;;;;0.70;0.70;;;;;;;;;;1860552;76;26276;-50
2022/02/13 00:48:56;;;;;;;0.70;0.70;;;;;;;;;;1860911;76;26273;-51
2022/02/13 00:51:23;;;;;;;4.35;0.70;;;;;;;;;;1858481;76;26740;-53
2022/02/13 00:53:51;;;;;;;0.53;0.53;;;;;;;;;;1859605;76;26733;-51
2022/02/13 00:56:18;;;;;;;0.60;0.60;;;;;;;;;;1864146;75;26288;-48
2022/02/13 00:58:45;;;;;;;0.98;0.70;;;;;;;;;;1859492;76;26375;-47
2022/02/13 01:01:13;;;;;;;0.53;0.53;;;;;;;;;;1857783;75;26873;-50
2022/02/13 01:03:41;;;;;;;0.70;0.70;;;;;;;;;;1860644;76;26350;-44
2022/02/13 01:06:08;;;;;;;1.47;0.40;;;;;;;;;;1861694;75;26301;-46
2022/02/13 01:08:36;;;;;;;0.50;0.50;;;;;;;;;;1860223;76;26693;-44
2022/02/13 01:11:04;;;;;;;0.88;0.60;;;;;;;;;;1861227;76;26261;-50
2022/02/13 01:13:31;;;;;;;0.70;0.70;;;;;;;;;;1857468;76;26292;-44
2022/02/13 01:15:59;;;;;;;0.68;0.55;;;;;;;;;;1859960;76;26250;-50
2022/02/13 01:18:27;;;;;;;2.15;0.60;;;;;;;;;;1860731;75;26190;-50
2022/02/13 01:20:54;;;;;;;0.62;0.60;;;;;;;;;;1861548;76;26201;-46
2022/02/13 01:23:22;;;;;;;0.60;0.60;;;;;;;;;;1856663;76;26355;-47
2022/02/13 01:25:49;;;;;;;0.30;0.30;;;;;;;;;;1860576;76;26319;-44
2022/02/13 01:28:16;;;;;;;1.42;0.50;;;;;;;;;;1861087;76;26318;-44
2022/02/13 01:30:43;;;;;;;1.62;0.53;;;;;;;;;;1860429;76;26307;-49
2022/02/13 01:33:11;;;;;;;0.95;0.70;;;;;;;;;;1860778;76;26283;-44
2022/02/13 01:35:38;;;;;;;0.50;0.50;;;;;;;;;;1862991;76;26253;-47
2022/02/13 01:38:05;;;;;;;1.30;0.50;;;;;;;;;;1846085;76;26288;-48
2022/02/13 01:40:33;;;;;;;0.55;0.55;;;;;;;;;;1844241;76;26331;-46
2022/02/13 01:43:00;;;;;;;0.62;0.62;;;;;;;;;;1844679;76;26856;-51
2022/02/13 01:45:27;;;;;;;0.60;0.60;;;;;;;;;;1841164;76;26317;-55
2022/02/13 01:47:55;;;;;;;0.50;0.50;;;;;;;;;;1843137;76;26257;-47
2022/02/13 01:50:22;;;;;;;0.50;0.50;;;;;;;;;;1847672;76;26249;-49
2022/02/13 01:52:51;;;;;;;0.50;0.50;;;;;;;;;;1842571;76;26338;-46
2022/02/13 01:55:20;;;;;;;0.90;0.50;;;;;;;;;;1847118;76;26395;-48
2022/02/13 01:57:47;;;;;;;1.07;0.50;;;;;;;;;;1846058;76;26254;-46
2022/02/13 02:00:14;;;;;;;2.25;0.50;;;;;;;;;;1846225;76;26202;-44
2022/02/13 02:02:42;;;;;;;0.60;0.60;;;;;;;;;;1848369;76;26554;-46
2022/02/13 02:05:09;;;;;;;0.60;0.60;;;;;;;;;;1845633;76;26370;-48
2022/02/13 02:07:36;;;;;;;0.50;0.50;;;;;;;;;;1848506;76;25624;-50
2022/02/13 02:10:04;;;;;;;0.50;0.50;;;;;;;;;;1848097;76;26663;-48
2022/02/13 02:12:32;;;;;;;0.60;0.60;;;;;;;;;;1845052;76;26316;-48
2022/02/13 02:14:59;;;;;;;0.50;0.50;;;;;;;;;;1846443;76;26306;-48
2022/02/13 02:17:26;;;;;;;0.57;0.57;;;;;;;;;;1840149;76;26340;-48
2022/02/13 02:19:54;;;;;;;0.70;0.70;;;;;;;;;;1843945;76;26275;-44
2022/02/13 02:22:21;;;;;;;1.75;0.60;;;;;;;;;;1841153;76;26798;-47
2022/02/13 02:24:48;;;;;;;0.60;0.60;;;;;;;;;;1846617;76;26265;-51
2022/02/13 02:27:15;;;;;;;0.62;0.50;;;;;;;;;;1844831;76;26330;-48
2022/02/13 02:29:43;;;;;;;0.50;0.50;;;;;;;;;;1847491;76;26253;-48
2022/02/13 02:32:11;;;;;;;0.50;0.50;;;;;;;;;;1850835;76;26734;-47
2022/02/13 02:34:39;;;;;;;0.60;0.60;;;;;;;;;;1853829;76;26293;-48
2022/02/13 02:37:06;;;;;;;0.47;0.47;;;;;;;;;;1852806;76;26370;-48
2022/02/13 02:39:34;;;;;;;0.42;0.42;;;;;;;;;;1862443;76;26273;-50
2022/02/13 02:42:03;;;;;;;0.50;0.50;;;;;;;;;;1859048;76;26346;-48
2022/02/13 02:44:32;;;;;;;0.50;0.50;;;;;;;;;;1865158;76;26323;-49
2022/02/13 02:46:59;;;;;;;0.70;0.70;;;;;;;;;;1867250;76;26693;-47
2022/02/13 02:49:27;;;;;;;0.65;0.55;;;;;;;;;;1877528;76;26654;-44
2022/02/13 02:51:54;;;;;;;0.60;0.60;;;;;;;;;;1859985;76;26807;-44
2022/02/13 02:54:22;;;;;;;0.65;0.65;;;;;;;;;;1868438;75;26721;-50
2022/02/13 02:56:49;;;;;;;0.70;0.60;;;;;;;;;;1852217;76;26314;-53
2022/02/13 02:59:16;;;;;;;0.50;0.50;;;;;;;;;;1863092;76;26263;-47
2022/02/13 03:01:43;;;;;;;1.10;0.68;;;;;;;;;;1862296;76;26241;-49
2022/02/13 03:04:11;;;;;;;0.45;0.45;;;;;;;;;;1874810;76;26334;-45
2022/02/13 03:06:39;;;;;;;0.70;0.70;;;;;;;;;;1862000;76;26304;-45
2022/02/13 03:09:06;;;;;;;0.50;0.50;;;;;;;;;;1859448;76;26264;-48
2022/02/13 03:11:34;;;;;;;0.65;0.53;;;;;;;;;;1860484;76;26248;-48
2022/02/13 03:14:01;;;;;;;0.60;0.60;;;;;;;;;;1872615;76;26655;-46
2022/02/13 03:16:28;;;;;;;0.60;0.60;;;;;;;;;;1864572;76;26256;-48
2022/02/13 03:18:56;;;;;;;0.50;0.50;;;;;;;;;;1849626;76;26274;-44
2022/02/13 03:21:23;;;;;;;0.50;0.50;;;;;;;;;;1854233;76;27651;-47
2022/02/13 03:23:51;;;;;;;0.68;0.68;;;;;;;;;;1857637;76;26709;-47
2022/02/13 03:26:21;;;;;;;0.50;0.50;;;;;;;;;;1871267;76;26306;-51
2022/02/13 03:28:47;;;;;;;0.50;0.50;;;;;;;;;;1856603;76;26305;-45
2022/02/13 03:31:14;;;;;;;0.50;0.50;;;;;;;;;;1860922;76;26323;-44
2022/02/13 03:33:41;;;;;;;1.75;0.50;;;;;;;;;;1864360;76;26261;-50
2022/02/13 03:36:09;;;;;;;0.53;0.53;;;;;;;;;;1846813;76;26198;-48
2022/02/13 03:38:36;;;;;;;1.42;0.55;;;;;;;;;;1864393;76;25806;-45
2022/02/13 03:41:03;;;;;;;0.68;0.50;;;;;;;;;;1869960;76;26237;-47
2022/02/13 03:43:31;;;;;;;0.50;0.50;;;;;;;;;;1873342;76;26194;-54
2022/02/13 03:45:58;;;;;;;0.50;0.50;;;;;;;;;;1851171;76;26262;-44
2022/02/13 03:48:25;;;;;;;0.60;0.60;;;;;;;;;;1863688;76;26324;-46
2022/02/13 03:50:52;;;;;;;0.62;0.50;;;;;;;;;;1860793;76;26244;-48
2022/02/13 03:53:20;;;;;;;1.57;0.50;;;;;;;;;;1863281;76;26193;-47
2022/02/13 03:55:47;;;;;;;0.60;0.60;;;;;;;;;;1857506;76;26323;-44
2022/02/13 03:58:14;;;;;;;1.17;0.70;;;;;;;;;;1864253;76;26776;-50
2022/02/13 04:00:41;;;;;;;0.60;0.60;;;;;;;;;;1863023;76;26642;-46
2022/02/13 04:03:09;;;;;;;0.50;0.50;;;;;;;;;;1870441;76;26674;-44
2022/02/13 04:05:36;;;;;;;0.50;0.50;;;;;;;;;;1870270;76;26237;-45
2022/02/13 04:08:04;;;;;;;0.60;0.60;;;;;;;;;;1868579;76;26278;-45
2022/02/13 04:10:32;;;;;;;0.60;0.60;;;;;;;;;;1863553;77;26247;-45
2022/02/13 04:13:00;;;;;;;0.57;0.57;;;;;;;;;;1864024;76;26312;-44
2022/02/13 04:15:27;;;;;;;0.53;0.53;;;;;;;;;;1863708;76;26668;-46
2022/02/13 04:17:54;;;;;;;0.45;0.45;;;;;;;;;;1873548;76;26291;-45
2022/02/13 04:20:22;;;;;;;0.50;0.50;;;;;;;;;;1847532;76;26339;-47
2022/02/13 04:22:49;;;;;;;0.53;0.53;;;;;;;;;;1855214;75;26818;-46
2022/02/13 04:25:16;;;;;;;0.50;0.50;;;;;;;;;;1865675;76;26692;-47
2022/02/13 04:27:43;;;;;;;0.72;0.72;;;;;;;;;;1863945;76;26377;-48
2022/02/13 04:30:11;;;;;;;0.47;0.47;;;;;;;;;;1864272;76;26318;-46
2022/02/13 04:32:38;;;;;;;0.78;0.78;;;;;;;;;;1844756;76;26273;-48
2022/02/13 04:35:06;;;;;;;0.60;0.57;;;;;;;;;;1861795;76;26749;-50
2022/02/13 04:37:33;;;;;;;0.50;0.50;;;;;;;;;;1863505;76;26272;-51
2022/02/13 04:40:00;;;;;;;0.60;0.60;;;;;;;;;;1871633;76;26228;-50
2022/02/13 04:42:28;;;;;;;0.85;0.60;;;;;;;;;;1885224;76;26237;-46
2022/02/13 04:44:56;;;;;;;0.40;0.40;;;;;;;;;;1859883;76;26366;-44
2022/02/13 04:47:23;;;;;;;0.70;0.70;;;;;;;;;;1866588;76;26248;-45
2022/02/13 04:49:50;;;;;;;0.72;0.72;;;;;;;;;;1876091;76;26295;-45
2022/02/13 04:52:18;;;;;;;0.40;0.40;;;;;;;;;;1855459;77;26965;-48
2022/02/13 04:54:45;;;;;;;0.65;0.65;;;;;;;;;;1860068;76;26323;-46
2022/02/13 04:57:12;;;;;;;0.50;0.50;;;;;;;;;;1864003;76;26240;-44
2022/02/13 04:59:39;;;;;;;0.40;0.40;;;;;;;;;;1886984;76;26316;-48
2022/02/13 05:02:07;;;;;;;0.50;0.50;;;;;;;;;;1862163;76;26262;-44
2022/02/13 05:04:34;;;;;;;0.60;0.60;;;;;;;;;;1860657;76;26253;-45
2022/02/13 05:07:01;;;;;;;0.70;0.70;;;;;;;;;;1879058;76;26252;-44
2022/02/13 05:09:28;;;;;;;0.50;0.50;;;;;;;;;;1860710;76;26660;-49
2022/02/13 05:11:56;;;;;;;0.50;0.50;;;;;;;;;;1872364;76;26676;-48
2022/02/13 05:14:24;;;;;;;0.50;0.50;;;;;;;;;;1878162;76;26363;-45
2022/02/13 05:16:52;;;;;;;0.60;0.60;;;;;;;;;;1864303;76;26789;-51
2022/02/13 05:19:19;;;;;;;0.40;0.40;;;;;;;;;;1852479;75;26270;-44
2022/02/13 05:21:46;;;;;;;0.53;0.50;;;;;;;;;;1855880;76;26689;-44
2022/02/13 05:24:13;;;;;;;0.57;0.57;;;;;;;;;;1865048;76;26712;-48
2022/02/13 05:26:41;;;;;;;0.40;0.40;;;;;;;;;;1861162;76;27629;-47
2022/02/13 05:29:09;;;;;;;0.60;0.60;;;;;;;;;;1868172;76;26578;-44
2022/02/13 05:31:36;;;;;;;0.72;0.60;;;;;;;;;;1874002;76;26315;-52
2022/02/13 05:34:03;;;;;;;0.40;0.40;;;;;;;;;;1869166;76;26276;-49
2022/02/13 05:36:30;;;;;;;1.37;0.78;;;;;;;;;;1867237;76;26733;-50
2022/02/13 05:38:58;;;;;;;2.17;1.12;;;;;;;;;;1867224;76;26987;-44
2022/02/13 05:41:25;;;;;;;0.50;0.50;;;;;;;;;;1878516;76;26771;-45
2022/02/13 05:43:52;;;;;;;0.70;0.70;;;;;;;;;;1863687;76;27555;-44
2022/02/13 05:46:20;;;;;;;0.40;0.40;;;;;;;;;;1878806;76;26362;-46
2022/02/13 05:48:47;;;;;;;0.50;0.50;;;;;;;;;;1865848;76;26398;-54
2022/02/13 05:51:15;;;;;;;0.57;0.57;;;;;;;;;;1859753;76;26291;-52
2022/02/13 05:53:42;;;;;;;0.70;0.70;;;;;;;;;;1833393;76;27356;-49
2022/02/13 05:56:09;;;;;;;0.75;0.50;;;;;;;;;;1853090;76;26682;-44
2022/02/13 05:58:39;;;;;;;0.50;0.50;;;;;;;;;;1864154;76;26255;-48
2022/02/13 06:01:06;;;;;;;0.50;0.50;;;;;;;;;;1861865;76;26293;-48
2022/02/13 06:03:33;;;;;;;0.60;0.60;;;;;;;;;;1863465;76;26253;-47
2022/02/13 06:06:01;;;;;;;0.60;0.60;;;;;;;;;;1861049;76;26366;-49
2022/02/13 06:08:28;;;;;;;0.60;0.60;;;;;;;;;;1862614;76;26257;-46
2022/02/13 06:10:55;;;;;;;1.98;0.70;;;;;;;;;;1863919;76;26708;-48
2022/02/13 06:13:23;;;;;;;0.53;0.53;;;;;;;;;;1861673;76;26289;-46
2022/02/13 06:15:50;;;;;;;0.60;0.60;;;;;;;;;;1862762;76;26276;-46
2022/02/13 06:18:18;;;;;;;0.50;0.50;;;;;;;;;;1863940;76;26722;-46
2022/02/13 06:20:45;;;;;;;0.70;0.70;;;;;;;;;;1860511;76;26257;-46
2022/02/13 06:23:13;;;;;;;0.40;0.40;;;;;;;;;;1862011;75;26345;-44
2022/02/13 06:25:40;;;;;;;0.53;0.53;;;;;;;;;;1867400;76;26195;-47
2022/02/13 06:28:08;;;;;;;0.60;0.60;;;;;;;;;;1863148;76;26272;-45
2022/02/13 06:30:35;;;;;;;0.70;0.70;;;;;;;;;;1859552;76;26248;-49
2022/02/13 06:33:03;;;;;;;0.50;0.50;;;;;;;;;;1862999;76;26440;-44
2022/02/13 06:35:31;;;;;;;0.62;0.57;;;;;;;;;;1862904;76;26293;-49
2022/02/13 06:38:00;;;;;;;2.17;0.65;;;;;;;;;;1861453;76;26350;-51
2022/02/13 06:40:28;;;;;;;0.40;0.40;;;;;;;;;;1848990;76;26266;-45
2022/02/13 06:42:56;;;;;;;0.60;0.60;;;;;;;;;;1833076;76;26349;-44
2022/02/13 06:45:24;;;;;;;0.50;0.50;;;;;;;;;;1844735;76;26543;-48
2022/02/13 06:47:52;;;;;;;0.60;0.60;;;;;;;;;;1842241;76;26289;-44
2022/02/13 06:50:20;;;;;;;0.72;0.72;;;;;;;;;;1843868;76;26223;-45
2022/02/13 06:52:47;;;;;;;0.90;0.68;;;;;;;;;;1841222;76;26725;-44
2022/02/13 06:55:15;;;;;;;1.20;0.70;;;;;;;;;;1844440;76;26209;-45
2022/02/13 06:57:45;;;;;;;1.42;0.60;;;;;;;;;;1843917;76;26207;-47
2022/02/13 07:00:15;;;;;;;0.55;0.55;;;;;;;;;;1842678;76;26798;-47
2022/02/13 07:02:43;;;;;;;0.60;0.60;;;;;;;;;;1843982;76;26250;-48
2022/02/13 07:05:11;;;;;;;3.02;0.60;;;;;;;;;;1843507;76;26742;-44
2022/02/13 07:07:38;;;;;;;0.70;0.70;;;;;;;;;;1846672;76;26257;-44
2022/02/13 07:10:09;;;;;;;1.27;0.60;;;;;;;;;;1846497;76;26320;-45
2022/02/13 07:12:37;;;;;;;1.62;0.70;;;;;;;;;;1845261;76;26293;-50
2022/02/13 07:15:06;;;;;;;0.82;0.70;;;;;;;;;;1842471;76;26944;-45
2022/02/13 07:17:35;;;;;;;1.30;0.95;;;;;;;;;;1846136;76;26359;-47
2022/02/13 07:20:03;;;;;;;3.50;0.78;;;;;;;;;;1845882;76;26837;-45
2022/02/13 07:22:30;;;;;;;0.60;0.60;;;;;;;;;;1845224;76;26314;-54
2022/02/13 07:24:58;;;;;;;0.50;0.50;;;;;;;;;;1846583;76;26257;-44
2022/02/13 07:27:25;;;;;;;1.67;0.60;;;;;;;;;;1845952;76;26261;-50
2022/02/13 07:29:53;;;;;;;1.02;0.60;;;;;;;;;;1844088;76;26772;-46
2022/02/13 07:32:20;;;;;;;1.10;0.82;;;;;;;;;;1845959;76;26570;-48
2022/02/13 07:34:47;;;;;;;3.02;0.70;;;;;;;;;;1844493;76;26343;-48
2022/02/13 07:37:14;;;;;;;1.82;0.70;;;;;;;;;;1834313;76;26229;-44
2022/02/13 07:39:42;;;;;;;0.60;0.60;;;;;;;;;;1842141;76;26303;-49
2022/02/13 07:42:10;;;;;;;2.25;0.78;;;;;;;;;;1856596;76;26244;-46
2022/02/13 07:44:40;;;;;;;4.58;0.70;;;;;;;;;;1856331;76;26291;-51
2022/02/13 07:47:07;;;;;;;5.47;0.90;;;;;;;;;;1854333;76;26282;-51
2022/02/13 07:49:34;;;;;;;4.50;0.75;;;;;;;;;;1851843;76;26780;-49
2022/02/13 07:52:02;;;;;;;3.08;0.80;;;;;;;;;;1838364;76;26920;-47
2022/02/13 07:54:29;;;;;;;1.67;0.80;;;;;;;;;;1837369;76;26808;-47
2022/02/13 07:56:56;;;;;;;2.05;0.70;;;;;;;;;;1845845;76;26390;-45
2022/02/13 07:59:24;;;;;;;3.08;0.88;;;;;;;;;;1850210;76;26695;-48
2022/02/13 08:01:51;;;;;;;5.47;1.00;;;;;;;;;;1844210;76;26711;-45
2022/02/13 08:04:19;;;;;;;6.47;0.93;;;;;;;;;;1857852;76;26295;-48
2022/02/13 08:06:46;;;;;;;3.08;0.90;;;;;;;;;;1839663;76;26677;-44
2022/02/13 08:09:13;;;;;;;5.78;1.02;;;;;;;;;;1854826;76;26970;-47
2022/02/13 08:11:40;;;;;;;2.95;0.80;;;;;;;;;;1857778;76;26808;-44
2022/02/13 08:14:08;;;;;;;2.20;1.00;;;;;;;;;;1856246;76;26295;-47
2022/02/13 08:16:35;;;;;;;4.58;0.72;;;;;;;;;;1856930;76;26261;-48
2022/02/13 08:19:02;;;;;;;6.37;0.88;;;;;;;;;;1853286;76;26815;-44
2022/02/13 08:21:29;;;;;;;5.00;0.90;;;;;;;;;;1857818;76;26653;-44
2022/02/13 08:23:57;;;;;;;1.55;0.90;;;;;;;;;;1853018;76;26732;-48
2022/02/13 08:26:24;;;;;;;4.17;1.20;;;;;;;;;;1857681;76;26269;-50
2022/02/13 08:28:51;;;;;;;2.52;0.80;;;;;;;;;;1856379;76;26343;-45
2022/02/13 08:31:19;;;;;;;5.00;0.88;;;;;;;;;;1855607;76;25320;-46
2022/02/13 08:33:47;;;;;;;3.60;0.72;;;;;;;;;;1857613;76;26277;-44
2022/02/13 08:36:15;;;;;;;1.55;0.70;;;;;;;;;;1855863;76;26246;-45
2022/02/13 08:38:42;;;;;;;1.07;0.85;;;;;;;;;;1851083;76;26362;-47
2022/02/13 08:41:10;;;;;;;2.58;0.75;;;;;;;;;;1861390;76;26699;-47
2022/02/13 08:43:37;;;;;;;2.60;0.90;;;;;;;;;;1862187;76;26322;-52
2022/02/13 08:46:05;;;;;;;5.62;0.80;;;;;;;;;;1854104;76;26319;-44
2022/02/13 08:48:32;;;;;;;2.00;0.90;;;;;;;;;;1857732;76;26210;-52
2022/02/13 08:50:59;;;;;;;0.88;0.60;;;;;;;;;;1856056;76;26320;-46
2022/02/13 08:53:26;;;;;;;0.70;0.70;;;;;;;;;;1854021;76;26806;-46
2022/02/13 08:55:54;;;;;;;1.00;0.57;;;;;;;;;;1856043;76;26309;-44
2022/02/13 08:58:21;;;;;;;1.27;0.65;;;;;;;;;;1849305;76;26253;-44
2022/02/13 09:00:48;;;;;;;0.62;0.62;;;;;;;;;;1856263;77;26341;-51
2022/02/13 09:03:16;;;;;;;3.22;0.80;;;;;;;;;;1856314;77;26766;-50
2022/02/13 09:05:44;;;;;;;2.40;0.50;;;;;;;;;;1864203;77;26783;-49
2022/02/13 09:08:11;;;;;;;1.00;0.70;;;;;;;;;;1863794;77;26287;-46
2022/02/13 09:10:38;;;;;;;0.70;0.47;;;;;;;;;;1864109;77;26363;-49
2022/02/13 09:13:08;;;;;;;2.83;0.70;;;;;;;;;;1864178;76;26855;-47
2022/02/13 09:15:35;;;;;;;1.62;0.62;;;;;;;;;;1864273;77;26292;-46
2022/02/13 09:18:02;;;;;;;0.70;0.62;;;;;;;;;;1865201;76;26257;-47
2022/02/13 09:20:30;;;;;;;0.95;0.90;;;;;;;;;;1849375;75;26393;-51
2022/02/13 09:22:57;;;;;;;1.30;0.57;;;;;;;;;;1856599;75;26300;-46
2022/02/13 09:25:24;;;;;;;0.60;0.60;;;;;;;;;;1864453;75;26356;-48
2022/02/13 09:27:52;;;;;;;0.88;0.88;;;;;;;;;;1863391;76;26319;-44
2022/02/13 09:30:19;;;;;;;1.17;0.90;;;;;;;;;;1858154;77;26276;-47
2022/02/13 09:32:46;;;;;;;0.60;0.60;;;;;;;;;;1863022;76;26319;-45
2022/02/13 09:35:15;;;;;;;0.68;0.60;;;;;;;;;;1869523;75;26284;-44
2022/02/13 09:37:42;;;;;;;1.85;0.70;;;;;;;;;;1864300;76;26273;-49
2022/02/13 09:40:10;;;;;;;1.55;0.62;;;;;;;;;;1863532;76;26256;-46
2022/02/13 09:42:40;;;;;;;1.62;0.70;;;;;;;;;;1859688;75;26315;-48
2022/02/13 09:45:07;;;;;;;0.62;0.62;;;;;;;;;;1860547;75;26553;-49
2022/02/13 09:47:36;;;;;;;0.55;0.55;;;;;;;;;;1854784;76;26315;-48
2022/02/13 09:50:04;;;;;;;1.10;0.78;;;;;;;;;;1860131;76;26350;-44
2022/02/13 09:52:32;;;;;;;0.55;0.55;;;;;;;;;;1861071;76;26782;-47
2022/02/13 09:54:59;;;;;;;0.60;0.60;;;;;;;;;;1847425;75;26338;-50
2022/02/13 10:00:12;;;;;;;0.85;0.60;;;;;;;;;;1854688;75;26277;-47
2022/02/13 10:02:41;;;;;;;1.90;0.53;;;;;;;;;;1861569;75;26838;-47
2022/02/13 10:05:10;;;;;;;0.60;0.50;;;;;;;;;;1856338;75;26311;-47
2022/02/13 10:07:39;;;;;;;0.88;0.53;;;;;;;;;;1862480;75;26257;-48
2022/02/13 10:10:07;;;;;;;0.70;0.70;;;;;;;;;;1863351;76;26307;-44
2022/02/13 10:12:42;;;;;;;0.78;0.60;;;;;;;;;;1858294;76;26713;-52
2022/02/13 10:15:11;;;;;;;0.70;0.70;;;;;;;;;;1863527;76;26962;-48
2022/02/13 10:17:40;;;;;;;0.50;0.50;;;;;;;;;;1846068;75;26823;-52
2022/02/13 10:20:08;;;;;;;0.60;0.60;;;;;;;;;;1856584;75;26308;-44
2022/02/13 10:22:37;;;;;;;0.50;0.50;;;;;;;;;;1860867;76;26257;-48
2022/02/13 10:25:14;;;;;;;0.60;0.60;;;;;;;;;;1859476;76;26292;-50
2022/02/13 10:27:48;;;;;;;0.50;0.50;;;;;;;;;;1850868;77;26271;-48
2022/02/13 10:30:35;;;;;;;0.50;0.50;;;;;;;;;;1857348;75;26330;-51
2022/02/13 10:33:15;;;;;;;0.68;0.68;;;;;;;;;;1859079;77;26945;-51
2022/02/13 10:35:44;;;;;;;1.50;0.60;;;;;;;;;;1862868;77;26725;-50
2022/02/13 10:38:13;;;;;;;0.70;0.70;;;;;;;;;;1851979;76;26835;-44
2022/02/13 10:40:40;;;;;;;0.50;0.50;;;;;;;;;;1860070;75;26893;-44
2022/02/13 10:43:12;;;;;;;0.60;0.60;;;;;;;;;;1844886;77;26783;-47
2022/02/13 10:45:41;;;;;;;0.50;0.50;;;;;;;;;;1875808;76;26313;-49
2022/02/13 10:48:09;;;;;;;0.50;0.50;;;;;;;;;;1863495;75;26350;-45
2022/02/13 10:50:39;;;;;;;0.82;0.60;;;;;;;;;;1856502;76;26269;-52
2022/02/13 10:53:07;;;;;;;0.60;0.60;;;;;;;;;;1857592;75;26378;-50
2022/02/13 10:55:36;;;;;;;0.57;0.57;;;;;;;;;;1868968;75;26327;-44
2022/02/13 10:58:04;;;;;;;0.70;0.70;;;;;;;;;;1862250;76;26567;-45
2022/02/13 11:00:32;;;;;;;0.75;0.45;;;;;;;;;;1864454;77;26363;-48
2022/02/13 11:03:02;;;;;;;0.60;0.60;;;;;;;;;;1861384;77;26276;-52
2022/02/13 11:05:30;;;;;;;1.42;0.50;;;;;;;;;;1864092;77;26338;-44
2022/02/13 11:08:01;;;;;;;0.55;0.55;;;;;;;;;;1862368;77;26347;-47
2022/02/13 11:10:29;;;;;;;1.17;0.72;;;;;;;;;;1864088;76;26314;-45
2022/02/13 11:12:57;;;;;;;0.60;0.60;;;;;;;;;;1863748;77;26304;-49
2022/02/13 11:15:29;;;;;;;0.62;0.62;;;;;;;;;;1862388;76;26297;-50
2022/02/13 11:18:03;;;;;;;0.60;0.60;;;;;;;;;;1863461;76;25829;-46
2022/02/13 11:20:31;;;;;;;0.70;0.70;;;;;;;;;;1864566;76;26252;-47
2022/02/13 11:23:16;;;;;;;1.62;0.70;;;;;;;;;;1861648;75;26249;-53
2022/02/13 11:25:49;;;;;;;1.72;0.90;;;;;;;;;;1862224;75;26268;-50
2022/02/13 11:28:19;;;;;;;0.70;0.70;;;;;;;;;;1857736;75;26641;-46
2022/02/13 11:30:52;;;;;;;0.70;0.65;;;;;;;;;;1858352;75;26271;-53
2022/02/13 11:33:37;;;;;;;2.60;0.85;;;;;;;;;;1863607;75;26209;-45
2022/02/13 11:36:05;;;;;;;2.72;0.80;;;;;;;;;;1867339;75;26324;-45
2022/02/13 11:38:40;;;;;;;0.70;0.70;;;;;;;;;;1871476;76;26279;-45
2022/02/13 11:41:08;;;;;;;2.08;1.25;;;;;;;;;;1860295;76;26220;-49
2022/02/13 11:43:54;;;;;;;1.25;1.00;;;;;;;;;;1875342;76;26940;-46
2022/02/13 11:46:34;;;;;;;0.80;0.80;;;;;;;;;;1866288;76;26843;-45
2022/02/13 11:48:58;;;;;;;0.82;0.82;;;;;;;;;;1870846;76;26343;-46
2022/02/13 11:51:42;;;;;;;0.70;0.70;;;;;;;;;;1862344;75;26269;-48
2022/02/13 11:54:09;;;;;;;0.80;0.80;;;;;;;;;;1777438;79;26727;-45
2022/02/13 11:56:36;;;;;;;0.93;0.80;;;;;;;;;;1833158;76;26362;-46
2022/02/13 11:59:04;;;;;;;0.95;0.80;;;;;;;;;;1862328;76;26269;-47
2022/02/13 12:01:38;;;;;;;1.00;1.00;;;;;;;;;;1853078;76;26400;-49
2022/02/13 12:04:07;;;;;;;0.82;0.80;;;;;;;;;;1862571;76;25830;-51
2022/02/13 12:06:35;;;;;;;0.90;0.90;;;;;;;;;;1866092;76;26288;-43
2022/02/13 12:09:10;;;;;;;1.12;0.90;;;;;;;;;;1880875;76;26740;-45
2022/02/13 12:11:39;;;;;;;0.90;0.90;;;;;;;;;;1878407;76;26351;-52
2022/02/13 12:14:15;;;;;;;0.80;0.80;;;;;;;;;;1845602;76;26316;-44
2022/02/13 12:16:49;;;;;;;0.90;0.90;;;;;;;;;;1861727;76;26280;-47
2022/02/13 12:19:18;;;;;;;0.90;0.90;;;;;;;;;;1864276;76;26330;-44
2022/02/13 12:21:45;;;;;;;0.82;0.82;;;;;;;;;;1854204;76;26294;-46
2022/02/13 12:24:12;;;;;;;1.85;1.00;;;;;;;;;;1854410;76;26614;-45
2022/02/13 12:26:41;;;;;;;1.22;1.00;;;;;;;;;;1851638;76;26271;-54
2022/02/13 12:29:10;;;;;;;0.98;0.98;;;;;;;;;;1857288;76;26896;-43
2022/02/13 12:31:37;;;;;;;0.80;0.80;;;;;;;;;;1861651;76;26253;-43
2022/02/13 12:34:06;;;;;;;1.20;1.10;;;;;;;;;;1874530;76;26254;-47
2022/02/13 12:36:33;;;;;;;1.15;1.00;;;;;;;;;;1861352;76;25866;-43
2022/02/13 12:39:01;;;;;;;1.12;1.10;;;;;;;;;;1871431;76;26342;-46
2022/02/13 12:41:28;;;;;;;0.93;0.93;;;;;;;;;;1861820;76;26256;-46
2022/02/13 12:43:55;;;;;;;0.98;0.98;;;;;;;;;;1864151;76;26719;-43
2022/02/13 12:46:23;;;;;;;1.10;1.10;;;;;;;;;;1848558;76;26329;-45
2022/02/13 12:48:50;;;;;;;1.20;1.10;;;;;;;;;;1845874;76;26201;-45
2022/02/13 12:51:28;;;;;;;1.20;1.20;;;;;;;;;;1848705;76;26197;-43
2022/02/13 12:53:57;;;;;;;1.30;1.20;;;;;;;;;;1846372;76;26718;-47
2022/02/13 12:56:25;;;;;;;0.88;0.88;;;;;;;;;;1848830;76;26365;-44
2022/02/13 12:58:54;;;;;;;0.90;0.85;;;;;;;;;;1844179;76;26819;-50
2022/02/13 13:01:31;;;;;;;1.27;0.90;;;;;;;;;;1844325;76;26273;-43
2022/02/13 13:03:59;;;;;;;1.02;1.02;;;;;;;;;;1841458;76;26303;-46
2022/02/13 13:06:27;;;;;;;1.07;1.07;;;;;;;;;;1865347;76;26203;-44
2022/02/13 13:08:57;;;;;;;1.20;1.00;;;;;;;;;;1848274;76;26261;-48
2022/02/13 13:11:31;;;;;;;1.85;1.00;;;;;;;;;;1845471;76;26269;-46
2022/02/13 13:14:06;;;;;;;2.05;1.20;;;;;;;;;;1847584;76;26773;-48
2022/02/13 13:16:34;;;;;;;1.00;1.00;;;;;;;;;;1847556;76;26313;-50
2022/02/13 13:19:01;;;;;;;1.57;1.00;;;;;;;;;;1848443;76;26343;-51
2022/02/13 13:21:32;;;;;;;1.10;1.00;;;;;;;;;;1840087;76;26331;-49
2022/02/13 13:24:10;;;;;;;0.90;0.90;;;;;;;;;;1844109;76;26332;-45
2022/02/13 13:26:39;;;;;;;1.00;1.00;;;;;;;;;;1843370;76;26268;-45
2022/02/13 13:29:20;;;;;;;1.00;1.00;;;;;;;;;;1844696;77;26767;-45
2022/02/13 13:31:55;;;;;;;1.65;1.10;;;;;;;;;;1848817;77;26843;-48
2022/02/13 13:34:22;;;;;;;0.93;0.90;;;;;;;;;;1848464;77;26865;-47
2022/02/13 13:36:49;;;;;;;1.10;1.10;;;;;;;;;;1849130;77;26294;-46
2022/02/13 13:39:24;;;;;;;1.52;1.10;;;;;;;;;;1848956;77;26213;-44
2022/02/13 13:41:51;;;;;;;1.00;1.00;;;;;;;;;;1847491;77;26201;-48
2022/02/13 13:44:20;;;;;;;0.98;0.98;;;;;;;;;;1849169;77;26277;-48
2022/02/13 13:46:48;;;;;;;0.90;0.90;;;;;;;;;;1848350;76;26328;-52
2022/02/13 13:49:15;;;;;;;1.10;1.10;;;;;;;;;;1848942;77;26246;-45
2022/02/13 13:51:43;;;;;;;1.10;1.10;;;;;;;;;;1849031;76;26265;-46
2022/02/13 13:54:13;;;;;;;1.00;0.90;;;;;;;;;;1848219;77;26261;-45
2022/02/13 13:56:40;;;;;;;1.40;1.30;;;;;;;;;;1848951;77;26348;-51
2022/02/13 13:59:08;;;;;;;1.20;1.20;;;;;;;;;;1848619;77;26895;-45
2022/02/13 14:01:36;;;;;;;1.20;1.10;;;;;;;;;;1848983;77;26265;-44
2022/02/13 14:04:04;;;;;;;1.00;1.00;;;;;;;;;;1848888;77;26875;-48
2022/02/13 14:06:31;;;;;;;0.95;0.95;;;;;;;;;;1855783;77;26304;-45
2022/02/13 14:08:58;;;;;;;0.95;0.95;;;;;;;;;;1847961;77;26249;-48
2022/02/13 14:11:25;;;;;;;1.00;1.00;;;;;;;;;;1847006;77;26327;-47
2022/02/13 14:13:53;;;;;;;0.90;0.90;;;;;;;;;;1848792;77;26308;-47
2022/02/13 14:16:23;;;;;;;1.00;1.00;;;;;;;;;;1849175;77;26335;-44
2022/02/13 14:18:50;;;;;;;1.00;1.00;;;;;;;;;;1843275;77;26284;-45
2022/02/13 14:21:17;;;;;;;1.10;1.10;;;;;;;;;;1845253;77;26330;-44
2022/02/13 14:23:44;;;;;;;1.00;1.00;;;;;;;;;;1848988;77;26744;-49
2022/02/13 14:26:12;;;;;;;0.82;0.82;;;;;;;;;;1825787;76;26358;-49
2022/02/13 14:28:39;;;;;;;0.85;0.85;;;;;;;;;;1840975;76;26308;-44
2022/02/13 14:31:07;;;;;;;1.10;1.10;;;;;;;;;;1862128;76;25776;-45
2022/02/13 14:33:34;;;;;;;1.00;1.00;;;;;;;;;;1850085;76;26338;-50
2022/02/13 14:36:01;;;;;;;1.07;1.07;;;;;;;;;;1847258;76;26273;-52
2022/02/13 14:38:28;;;;;;;0.88;0.88;;;;;;;;;;1848665;76;26254;-49
2022/02/13 14:40:56;;;;;;;1.10;1.10;;;;;;;;;;1844229;76;26324;-49
2022/02/13 14:43:24;;;;;;;1.00;1.00;;;;;;;;;;1842677;76;26992;-45
2022/02/13 14:45:51;;;;;;;0.95;0.95;;;;;;;;;;1842839;76;26286;-47
2022/02/13 14:48:18;;;;;;;1.10;1.10;;;;;;;;;;1847749;76;26315;-49
2022/02/13 14:50:46;;;;;;;1.05;1.05;;;;;;;;;;1840148;76;26281;-46
2022/02/13 14:53:14;;;;;;;0.95;0.95;;;;;;;;;;1847993;76;26642;-45